sensor_id;sensor_type;location;lat;lon;timestamp;P1;durP1;ratioP1;P2;durP2;ratioP2
12493;SDS011;8260;51.422;6.786;2023-03-01T00:01:17;10.93;;;8.63;;
12493;SDS011;8260;51.422;6.786;2023-03-01T00:03:46;13.37;;;8.70;;
12493;SDS011;8260;51.422;6.786;2023-03-01T00:06:15;8.93;;;7.93;;
12493;SDS011;8260;51.422;6.786;2023-03-01T00:08:45;13.83;;;9.20;;
12493;SDS011;8260;51.422;6.786;2023-03-01T00:11:14;13.60;;;8.20;;
12493;SDS011;8260;51.422;6.786;2023-03-01T00:13:43;11.93;;;8.53;;
12493;SDS011;8260;51.422;6.786;2023-03-01T00:16:13;14.53;;;9.23;;
12493;SDS011;8260;51.422;6.786;2023-03-01T00:18:42;9.60;;;7.73;;
12493;SDS011;8260;51.422;6.786;2023-03-01T00:21:11;12.43;;;8.93;;
12493;SDS011;8260;51.422;6.786;2023-03-01T00:23:39;12.73;;;8.60;;
12493;SDS011;8260;51.422;6.786;2023-03-01T00:26:10;12.27;;;8.30;;
12493;SDS011;8260;51.422;6.786;2023-03-01T00:28:40;10.33;;;8.50;;
12493;SDS011;8260;51.422;6.786;2023-03-01T00:31:10;12.00;;;8.53;;
12493;SDS011;8260;51.422;6.786;2023-03-01T00:33:38;10.17;;;8.10;;
12493;SDS011;8260;51.422;6.786;2023-03-01T00:36:07;11.43;;;8.30;;
12493;SDS011;8260;51.422;6.786;2023-03-01T00:38:36;11.40;;;8.17;;
12493;SDS011;8260;51.422;6.786;2023-03-01T00:41:05;12.30;;;8.77;;
12493;SDS011;8260;51.422;6.786;2023-03-01T00:43:35;11.90;;;9.00;;
12493;SDS011;8260;51.422;6.786;2023-03-01T00:46:04;12.93;;;9.40;;
12493;SDS011;8260;51.422;6.786;2023-03-01T00:48:33;11.57;;;8.90;;
12493;SDS011;8260;51.422;6.786;2023-03-01T00:51:06;11.43;;;8.83;;
12493;SDS011;8260;51.422;6.786;2023-03-01T00:53:35;9.93;;;7.77;;
12493;SDS011;8260;51.422;6.786;2023-03-01T00:56:04;9.23;;;8.33;;
12493;SDS011;8260;51.422;6.786;2023-03-01T00:58:33;13.33;;;8.33;;
12493;SDS011;8260;51.422;6.786;2023-03-01T01:01:08;12.27;;;8.07;;
12493;SDS011;8260;51.422;6.786;2023-03-01T01:03:44;10.93;;;8.43;;
12493;SDS011;8260;51.422;6.786;2023-03-01T01:06:13;13.23;;;8.90;;
12493;SDS011;8260;51.422;6.786;2023-03-01T01:08:42;15.07;;;9.00;;
12493;SDS011;8260;51.422;6.786;2023-03-01T01:11:10;12.67;;;8.37;;
12493;SDS011;8260;51.422;6.786;2023-03-01T01:13:39;11.43;;;8.40;;
12493;SDS011;8260;51.422;6.786;2023-03-01T01:16:09;10.53;;;8.70;;
12493;SDS011;8260;51.422;6.786;2023-03-01T01:18:37;10.97;;;8.40;;
12493;SDS011;8260;51.422;6.786;2023-03-01T01:21:07;10.33;;;8.10;;
12493;SDS011;8260;51.422;6.786;2023-03-01T01:23:36;12.60;;;8.60;;
12493;SDS011;8260;51.422;6.786;2023-03-01T01:26:05;11.87;;;8.83;;
12493;SDS011;8260;51.422;6.786;2023-03-01T01:28:34;11.33;;;8.70;;
12493;SDS011;8260;51.422;6.786;2023-03-01T01:31:02;11.50;;;8.63;;
12493;SDS011;8260;51.422;6.786;2023-03-01T01:33:33;11.73;;;8.50;;
12493;SDS011;8260;51.422;6.786;2023-03-01T01:36:02;9.13;;;8.23;;
12493;SDS011;8260;51.422;6.786;2023-03-01T01:38:30;10.97;;;8.37;;
12493;SDS011;8260;51.422;6.786;2023-03-01T01:40:58;12.53;;;9.47;;
12493;SDS011;8260;51.422;6.786;2023-03-01T01:43:28;11.27;;;9.00;;
12493;SDS011;8260;51.422;6.786;2023-03-01T01:45:56;10.97;;;8.73;;
12493;SDS011;8260;51.422;6.786;2023-03-01T01:48:28;12.40;;;8.37;;
12493;SDS011;8260;51.422;6.786;2023-03-01T01:51:09;10.43;;;8.67;;
12493;SDS011;8260;51.422;6.786;2023-03-01T01:53:39;9.60;;;8.10;;
12493;SDS011;8260;51.422;6.786;2023-03-01T01:56:08;11.40;;;8.17;;
12493;SDS011;8260;51.422;6.786;2023-03-01T01:58:37;12.03;;;8.60;;
12493;SDS011;8260;51.422;6.786;2023-03-01T02:01:06;10.80;;;8.67;;
12493;SDS011;8260;51.422;6.786;2023-03-01T02:03:36;9.70;;;8.10;;
12493;SDS011;8260;51.422;6.786;2023-03-01T02:06:12;13.67;;;8.87;;
12493;SDS011;8260;51.422;6.786;2023-03-01T02:08:43;13.20;;;9.13;;
12493;SDS011;8260;51.422;6.786;2023-03-01T02:11:12;11.57;;;9.53;;
12493;SDS011;8260;51.422;6.786;2023-03-01T02:13:41;11.70;;;8.70;;
12493;SDS011;8260;51.422;6.786;2023-03-01T02:16:11;10.67;;;8.23;;
12493;SDS011;8260;51.422;6.786;2023-03-01T02:18:41;11.50;;;9.23;;
12493;SDS011;8260;51.422;6.786;2023-03-01T02:21:14;11.90;;;8.63;;
12493;SDS011;8260;51.422;6.786;2023-03-01T02:23:45;10.80;;;9.27;;
12493;SDS011;8260;51.422;6.786;2023-03-01T02:26:17;12.10;;;9.10;;
12493;SDS011;8260;51.422;6.786;2023-03-01T02:28:48;12.47;;;9.30;;
12493;SDS011;8260;51.422;6.786;2023-03-01T02:31:17;11.33;;;9.73;;
12493;SDS011;8260;51.422;6.786;2023-03-01T02:34:04;13.60;;;9.60;;
12493;SDS011;8260;51.422;6.786;2023-03-01T02:36:34;12.47;;;9.93;;
12493;SDS011;8260;51.422;6.786;2023-03-01T02:39:04;12.37;;;8.83;;
12493;SDS011;8260;51.422;6.786;2023-03-01T02:41:34;15.53;;;9.63;;
12493;SDS011;8260;51.422;6.786;2023-03-01T02:44:05;13.77;;;9.80;;
12493;SDS011;8260;51.422;6.786;2023-03-01T02:46:41;11.00;;;9.37;;
12493;SDS011;8260;51.422;6.786;2023-03-01T02:49:17;14.07;;;9.93;;
12493;SDS011;8260;51.422;6.786;2023-03-01T02:51:48;14.70;;;9.80;;
12493;SDS011;8260;51.422;6.786;2023-03-01T02:54:21;12.10;;;9.17;;
12493;SDS011;8260;51.422;6.786;2023-03-01T02:56:50;11.67;;;9.37;;
12493;SDS011;8260;51.422;6.786;2023-03-01T02:59:22;15.17;;;9.70;;
12493;SDS011;8260;51.422;6.786;2023-03-01T03:01:50;12.17;;;9.13;;
12493;SDS011;8260;51.422;6.786;2023-03-01T03:04:19;12.13;;;8.53;;
12493;SDS011;8260;51.422;6.786;2023-03-01T03:06:48;13.93;;;9.50;;
12493;SDS011;8260;51.422;6.786;2023-03-01T03:09:17;13.53;;;9.57;;
12493;SDS011;8260;51.422;6.786;2023-03-01T03:11:46;12.63;;;9.57;;
12493;SDS011;8260;51.422;6.786;2023-03-01T03:14:15;11.53;;;9.67;;
12493;SDS011;8260;51.422;6.786;2023-03-01T03:16:46;12.13;;;10.03;;
12493;SDS011;8260;51.422;6.786;2023-03-01T03:19:15;13.30;;;10.57;;
12493;SDS011;8260;51.422;6.786;2023-03-01T03:21:44;13.03;;;9.93;;
12493;SDS011;8260;51.422;6.786;2023-03-01T03:24:12;13.73;;;10.17;;
12493;SDS011;8260;51.422;6.786;2023-03-01T03:26:40;12.20;;;9.87;;
12493;SDS011;8260;51.422;6.786;2023-03-01T03:29:09;12.30;;;9.87;;
12493;SDS011;8260;51.422;6.786;2023-03-01T03:31:37;15.70;;;11.10;;
12493;SDS011;8260;51.422;6.786;2023-03-01T03:34:07;14.53;;;10.20;;
12493;SDS011;8260;51.422;6.786;2023-03-01T03:36:43;13.23;;;10.00;;
12493;SDS011;8260;51.422;6.786;2023-03-01T03:39:12;14.67;;;10.97;;
12493;SDS011;8260;51.422;6.786;2023-03-01T03:41:40;14.20;;;10.77;;
12493;SDS011;8260;51.422;6.786;2023-03-01T03:44:08;14.43;;;10.90;;
12493;SDS011;8260;51.422;6.786;2023-03-01T03:46:37;14.27;;;10.87;;
12493;SDS011;8260;51.422;6.786;2023-03-01T03:49:05;11.27;;;10.07;;
12493;SDS011;8260;51.422;6.786;2023-03-01T03:51:35;11.37;;;10.03;;
12493;SDS011;8260;51.422;6.786;2023-03-01T03:54:04;15.83;;;10.27;;
12493;SDS011;8260;51.422;6.786;2023-03-01T03:56:32;13.70;;;9.53;;
12493;SDS011;8260;51.422;6.786;2023-03-01T03:59:01;17.27;;;10.93;;
12493;SDS011;8260;51.422;6.786;2023-03-01T04:01:29;15.13;;;10.87;;
12493;SDS011;8260;51.422;6.786;2023-03-01T04:03:58;15.80;;;11.30;;
12493;SDS011;8260;51.422;6.786;2023-03-01T04:06:30;15.00;;;9.80;;
12493;SDS011;8260;51.422;6.786;2023-03-01T04:09:00;14.40;;;10.70;;
12493;SDS011;8260;51.422;6.786;2023-03-01T04:11:29;17.00;;;10.53;;
12493;SDS011;8260;51.422;6.786;2023-03-01T04:13:57;13.47;;;9.83;;
12493;SDS011;8260;51.422;6.786;2023-03-01T04:16:26;11.43;;;9.77;;
12493;SDS011;8260;51.422;6.786;2023-03-01T04:18:56;15.67;;;10.40;;
12493;SDS011;8260;51.422;6.786;2023-03-01T04:21:26;14.87;;;9.87;;
12493;SDS011;8260;51.422;6.786;2023-03-01T04:23:54;15.93;;;10.97;;
12493;SDS011;8260;51.422;6.786;2023-03-01T04:26:24;13.73;;;10.47;;
12493;SDS011;8260;51.422;6.786;2023-03-01T04:28:56;12.50;;;10.10;;
12493;SDS011;8260;51.422;6.786;2023-03-01T04:31:24;13.73;;;10.10;;
12493;SDS011;8260;51.422;6.786;2023-03-01T04:33:54;15.13;;;10.13;;
12493;SDS011;8260;51.422;6.786;2023-03-01T04:36:24;17.03;;;10.77;;
12493;SDS011;8260;51.422;6.786;2023-03-01T04:38:53;14.57;;;10.43;;
12493;SDS011;8260;51.422;6.786;2023-03-01T04:41:23;14.97;;;11.07;;
12493;SDS011;8260;51.422;6.786;2023-03-01T04:43:52;12.83;;;10.07;;
12493;SDS011;8260;51.422;6.786;2023-03-01T04:46:21;13.93;;;10.37;;
12493;SDS011;8260;51.422;6.786;2023-03-01T04:48:49;12.53;;;9.97;;
12493;SDS011;8260;51.422;6.786;2023-03-01T04:51:18;15.17;;;10.70;;
12493;SDS011;8260;51.422;6.786;2023-03-01T04:53:46;14.33;;;10.33;;
12493;SDS011;8260;51.422;6.786;2023-03-01T04:56:15;15.50;;;10.57;;
12493;SDS011;8260;51.422;6.786;2023-03-01T04:58:45;13.07;;;10.37;;
12493;SDS011;8260;51.422;6.786;2023-03-01T05:01:15;13.87;;;10.53;;
12493;SDS011;8260;51.422;6.786;2023-03-01T05:03:44;16.43;;;11.17;;
12493;SDS011;8260;51.422;6.786;2023-03-01T05:06:13;15.63;;;10.63;;
12493;SDS011;8260;51.422;6.786;2023-03-01T05:08:42;16.40;;;10.70;;
12493;SDS011;8260;51.422;6.786;2023-03-01T05:11:11;15.37;;;10.43;;
12493;SDS011;8260;51.422;6.786;2023-03-01T05:13:40;14.73;;;11.80;;
12493;SDS011;8260;51.422;6.786;2023-03-01T05:16:10;15.87;;;10.93;;
12493;SDS011;8260;51.422;6.786;2023-03-01T05:18:39;16.80;;;11.27;;
12493;SDS011;8260;51.422;6.786;2023-03-01T05:21:08;15.90;;;11.47;;
12493;SDS011;8260;51.422;6.786;2023-03-01T05:23:37;14.40;;;10.90;;
12493;SDS011;8260;51.422;6.786;2023-03-01T05:26:06;13.27;;;10.50;;
12493;SDS011;8260;51.422;6.786;2023-03-01T05:28:52;17.07;;;11.87;;
12493;SDS011;8260;51.422;6.786;2023-03-01T05:31:26;15.63;;;11.67;;
12493;SDS011;8260;51.422;6.786;2023-03-01T05:33:57;14.23;;;11.37;;
12493;SDS011;8260;51.422;6.786;2023-03-01T05:36:25;16.20;;;11.43;;
12493;SDS011;8260;51.422;6.786;2023-03-01T05:38:54;15.53;;;10.57;;
12493;SDS011;8260;51.422;6.786;2023-03-01T05:41:23;14.10;;;10.97;;
12493;SDS011;8260;51.422;6.786;2023-03-01T05:43:51;17.30;;;11.83;;
12493;SDS011;8260;51.422;6.786;2023-03-01T05:46:20;18.47;;;11.30;;
12493;SDS011;8260;51.422;6.786;2023-03-01T05:48:52;14.90;;;10.93;;
12493;SDS011;8260;51.422;6.786;2023-03-01T05:51:21;18.27;;;11.40;;
12493;SDS011;8260;51.422;6.786;2023-03-01T05:53:49;17.30;;;11.40;;
12493;SDS011;8260;51.422;6.786;2023-03-01T05:56:18;19.80;;;12.13;;
12493;SDS011;8260;51.422;6.786;2023-03-01T05:58:48;15.60;;;10.83;;
12493;SDS011;8260;51.422;6.786;2023-03-01T06:01:17;15.33;;;10.80;;
12493;SDS011;8260;51.422;6.786;2023-03-01T06:03:45;15.13;;;10.77;;
12493;SDS011;8260;51.422;6.786;2023-03-01T06:06:15;15.80;;;10.83;;
12493;SDS011;8260;51.422;6.786;2023-03-01T06:08:43;18.03;;;11.80;;
12493;SDS011;8260;51.422;6.786;2023-03-01T06:11:12;17.90;;;12.20;;
12493;SDS011;8260;51.422;6.786;2023-03-01T06:13:41;17.93;;;11.10;;
12493;SDS011;8260;51.422;6.786;2023-03-01T06:16:09;13.03;;;10.40;;
12493;SDS011;8260;51.422;6.786;2023-03-01T06:18:38;15.73;;;11.00;;
12493;SDS011;8260;51.422;6.786;2023-03-01T06:21:07;13.90;;;10.90;;
12493;SDS011;8260;51.422;6.786;2023-03-01T06:23:37;17.57;;;11.10;;
12493;SDS011;8260;51.422;6.786;2023-03-01T06:26:06;14.03;;;10.17;;
12493;SDS011;8260;51.422;6.786;2023-03-01T06:28:35;14.47;;;10.80;;
12493;SDS011;8260;51.422;6.786;2023-03-01T06:31:04;15.20;;;10.70;;
12493;SDS011;8260;51.422;6.786;2023-03-01T06:33:34;13.20;;;10.03;;
12493;SDS011;8260;51.422;6.786;2023-03-01T06:36:03;15.37;;;11.43;;
12493;SDS011;8260;51.422;6.786;2023-03-01T06:38:32;15.80;;;10.03;;
12493;SDS011;8260;51.422;6.786;2023-03-01T06:41:02;14.33;;;10.63;;
12493;SDS011;8260;51.422;6.786;2023-03-01T06:43:30;16.80;;;10.63;;
12493;SDS011;8260;51.422;6.786;2023-03-01T06:45:59;19.47;;;10.67;;
12493;SDS011;8260;51.422;6.786;2023-03-01T06:48:27;15.17;;;11.13;;
12493;SDS011;8260;51.422;6.786;2023-03-01T06:50:57;17.23;;;10.97;;
12493;SDS011;8260;51.422;6.786;2023-03-01T06:53:27;16.03;;;11.40;;
12493;SDS011;8260;51.422;6.786;2023-03-01T06:55:55;18.60;;;11.80;;
12493;SDS011;8260;51.422;6.786;2023-03-01T06:58:25;18.77;;;10.33;;
12493;SDS011;8260;51.422;6.786;2023-03-01T07:00:53;14.00;;;10.70;;
12493;SDS011;8260;51.422;6.786;2023-03-01T07:03:22;18.33;;;10.83;;
12493;SDS011;8260;51.422;6.786;2023-03-01T07:05:50;15.10;;;10.73;;
12493;SDS011;8260;51.422;6.786;2023-03-01T07:08:19;15.70;;;10.70;;
12493;SDS011;8260;51.422;6.786;2023-03-01T07:10:48;17.37;;;11.00;;
12493;SDS011;8260;51.422;6.786;2023-03-01T07:13:18;16.70;;;11.27;;
12493;SDS011;8260;51.422;6.786;2023-03-01T07:15:47;14.07;;;10.67;;
12493;SDS011;8260;51.422;6.786;2023-03-01T07:18:16;13.10;;;10.50;;
12493;SDS011;8260;51.422;6.786;2023-03-01T07:20:44;15.23;;;11.50;;
12493;SDS011;8260;51.422;6.786;2023-03-01T07:23:13;18.77;;;10.50;;
12493;SDS011;8260;51.422;6.786;2023-03-01T07:25:41;13.50;;;10.43;;
12493;SDS011;8260;51.422;6.786;2023-03-01T07:28:10;16.50;;;11.00;;
12493;SDS011;8260;51.422;6.786;2023-03-01T07:30:38;15.17;;;10.77;;
12493;SDS011;8260;51.422;6.786;2023-03-01T07:33:08;18.57;;;11.47;;
12493;SDS011;8260;51.422;6.786;2023-03-01T07:35:36;16.03;;;10.90;;
12493;SDS011;8260;51.422;6.786;2023-03-01T07:38:05;14.90;;;11.37;;
12493;SDS011;8260;51.422;6.786;2023-03-01T07:40:33;16.30;;;11.23;;
12493;SDS011;8260;51.422;6.786;2023-03-01T07:43:02;16.00;;;10.27;;
12493;SDS011;8260;51.422;6.786;2023-03-01T07:45:30;15.60;;;11.10;;
12493;SDS011;8260;51.422;6.786;2023-03-01T07:47:59;14.07;;;10.67;;
12493;SDS011;8260;51.422;6.786;2023-03-01T07:50:29;16.50;;;11.03;;
12493;SDS011;8260;51.422;6.786;2023-03-01T07:52:58;15.67;;;11.10;;
12493;SDS011;8260;51.422;6.786;2023-03-01T07:55:26;16.40;;;10.33;;
12493;SDS011;8260;51.422;6.786;2023-03-01T07:57:55;19.90;;;11.27;;
12493;SDS011;8260;51.422;6.786;2023-03-01T08:00:23;19.90;;;11.50;;
12493;SDS011;8260;51.422;6.786;2023-03-01T08:02:51;14.17;;;11.00;;
12493;SDS011;8260;51.422;6.786;2023-03-01T08:05:20;16.87;;;11.43;;
12493;SDS011;8260;51.422;6.786;2023-03-01T08:07:50;16.40;;;11.17;;
12493;SDS011;8260;51.422;6.786;2023-03-01T08:10:19;19.70;;;11.17;;
12493;SDS011;8260;51.422;6.786;2023-03-01T08:12:48;18.97;;;10.80;;
12493;SDS011;8260;51.422;6.786;2023-03-01T08:15:18;16.20;;;10.40;;
12493;SDS011;8260;51.422;6.786;2023-03-01T08:17:48;12.30;;;9.87;;
12493;SDS011;8260;51.422;6.786;2023-03-01T08:20:17;19.40;;;11.57;;
12493;SDS011;8260;51.422;6.786;2023-03-01T08:22:45;16.07;;;10.77;;
12493;SDS011;8260;51.422;6.786;2023-03-01T08:25:15;15.83;;;10.80;;
12493;SDS011;8260;51.422;6.786;2023-03-01T08:27:44;19.83;;;10.63;;
12493;SDS011;8260;51.422;6.786;2023-03-01T08:30:12;13.73;;;10.53;;
12493;SDS011;8260;51.422;6.786;2023-03-01T08:32:41;13.87;;;11.00;;
12493;SDS011;8260;51.422;6.786;2023-03-01T08:35:09;13.63;;;10.67;;
12493;SDS011;8260;51.422;6.786;2023-03-01T08:37:38;17.13;;;9.97;;
12493;SDS011;8260;51.422;6.786;2023-03-01T08:40:07;14.30;;;9.77;;
12493;SDS011;8260;51.422;6.786;2023-03-01T08:42:38;14.47;;;10.13;;
12493;SDS011;8260;51.422;6.786;2023-03-01T08:45:07;15.40;;;10.07;;
12493;SDS011;8260;51.422;6.786;2023-03-01T08:47:36;15.23;;;10.67;;
12493;SDS011;8260;51.422;6.786;2023-03-01T08:50:05;13.20;;;10.13;;
12493;SDS011;8260;51.422;6.786;2023-03-01T08:52:33;16.03;;;10.37;;
12493;SDS011;8260;51.422;6.786;2023-03-01T08:55:02;16.63;;;9.63;;
12493;SDS011;8260;51.422;6.786;2023-03-01T08:57:30;12.57;;;10.10;;
12493;SDS011;8260;51.422;6.786;2023-03-01T09:00:00;15.83;;;9.60;;
12493;SDS011;8260;51.422;6.786;2023-03-01T09:02:29;16.57;;;10.13;;
12493;SDS011;8260;51.422;6.786;2023-03-01T09:04:58;13.63;;;10.07;;
12493;SDS011;8260;51.422;6.786;2023-03-01T09:07:26;14.00;;;9.73;;
12493;SDS011;8260;51.422;6.786;2023-03-01T09:09:55;15.87;;;9.97;;
12493;SDS011;8260;51.422;6.786;2023-03-01T09:12:23;11.97;;;9.17;;
12493;SDS011;8260;51.422;6.786;2023-03-01T09:14:52;12.50;;;9.37;;
12493;SDS011;8260;51.422;6.786;2023-03-01T09:17:22;14.50;;;9.67;;
12493;SDS011;8260;51.422;6.786;2023-03-01T09:19:50;12.87;;;9.33;;
12493;SDS011;8260;51.422;6.786;2023-03-01T09:22:19;12.33;;;8.47;;
12493;SDS011;8260;51.422;6.786;2023-03-01T09:24:47;12.07;;;8.40;;
12493;SDS011;8260;51.422;6.786;2023-03-01T09:27:15;12.17;;;9.20;;
12493;SDS011;8260;51.422;6.786;2023-03-01T09:29:45;10.97;;;8.63;;
12493;SDS011;8260;51.422;6.786;2023-03-01T09:32:14;11.63;;;8.60;;
12493;SDS011;8260;51.422;6.786;2023-03-01T09:34:44;12.43;;;9.33;;
12493;SDS011;8260;51.422;6.786;2023-03-01T09:37:30;12.30;;;9.60;;
12493;SDS011;8260;51.422;6.786;2023-03-01T09:39:59;12.53;;;9.03;;
12493;SDS011;8260;51.422;6.786;2023-03-01T09:42:28;11.77;;;9.00;;
12493;SDS011;8260;51.422;6.786;2023-03-01T09:44:58;12.27;;;9.10;;
12493;SDS011;8260;51.422;6.786;2023-03-01T09:47:29;11.20;;;9.07;;
12493;SDS011;8260;51.422;6.786;2023-03-01T09:50:01;11.97;;;8.93;;
12493;SDS011;8260;51.422;6.786;2023-03-01T09:52:33;13.07;;;9.40;;
12493;SDS011;8260;51.422;6.786;2023-03-01T09:55:05;11.57;;;9.00;;
12493;SDS011;8260;51.422;6.786;2023-03-01T09:57:36;10.60;;;8.25;;
12493;SDS011;8260;51.422;6.786;2023-03-01T10:00:16;12.40;;;8.85;;
12493;SDS011;8260;51.422;6.786;2023-03-01T10:02:47;10.93;;;8.23;;
12493;SDS011;8260;51.422;6.786;2023-03-01T10:08:21;11.23;;;8.20;;
12493;SDS011;8260;51.422;6.786;2023-03-01T10:10:51;11.55;;;9.18;;
12493;SDS011;8260;51.422;6.786;2023-03-01T10:13:22;10.65;;;8.05;;
12493;SDS011;8260;51.422;6.786;2023-03-01T10:15:53;10.00;;;8.23;;
12493;SDS011;8260;51.422;6.786;2023-03-01T10:18:24;12.93;;;8.60;;
12493;SDS011;8260;51.422;6.786;2023-03-01T10:20:55;11.88;;;8.68;;
12493;SDS011;8260;51.422;6.786;2023-03-01T10:23:26;10.55;;;7.60;;
12493;SDS011;8260;51.422;6.786;2023-03-01T10:25:59;11.40;;;7.68;;
12493;SDS011;8260;51.422;6.786;2023-03-01T10:28:29;13.07;;;7.55;;
12493;SDS011;8260;51.422;6.786;2023-03-01T10:30:59;11.18;;;7.60;;
12493;SDS011;8260;51.422;6.786;2023-03-01T10:33:29;8.63;;;7.25;;
12493;SDS011;8260;51.422;6.786;2023-03-01T10:35:59;10.32;;;8.05;;
12493;SDS011;8260;51.422;6.786;2023-03-01T10:38:29;11.90;;;8.07;;
12493;SDS011;8260;51.422;6.786;2023-03-01T10:40:59;11.85;;;7.57;;
12493;SDS011;8260;51.422;6.786;2023-03-01T10:43:30;10.95;;;7.95;;
12493;SDS011;8260;51.422;6.786;2023-03-01T10:46:00;11.43;;;7.53;;
12493;SDS011;8260;51.422;6.786;2023-03-01T10:48:28;9.80;;;7.20;;
12493;SDS011;8260;51.422;6.786;2023-03-01T10:51:04;9.43;;;7.60;;
12493;SDS011;8260;51.422;6.786;2023-03-01T10:53:35;9.70;;;7.40;;
12493;SDS011;8260;51.422;6.786;2023-03-01T10:56:05;9.40;;;7.20;;
12493;SDS011;8260;51.422;6.786;2023-03-01T10:58:34;9.35;;;6.72;;
12493;SDS011;8260;51.422;6.786;2023-03-01T11:01:03;8.48;;;6.60;;
12493;SDS011;8260;51.422;6.786;2023-03-01T11:03:34;12.95;;;7.50;;
12493;SDS011;8260;51.422;6.786;2023-03-01T11:06:04;8.63;;;7.10;;
12493;SDS011;8260;51.422;6.786;2023-03-01T11:08:38;8.15;;;6.53;;
12493;SDS011;8260;51.422;6.786;2023-03-01T11:11:18;7.43;;;6.65;;
12493;SDS011;8260;51.422;6.786;2023-03-01T11:13:55;9.52;;;6.78;;
12493;SDS011;8260;51.422;6.786;2023-03-01T11:16:25;10.00;;;7.30;;
12493;SDS011;8260;51.422;6.786;2023-03-01T11:18:58;9.82;;;7.13;;
12493;SDS011;8260;51.422;6.786;2023-03-01T11:21:26;11.65;;;7.00;;
12493;SDS011;8260;51.422;6.786;2023-03-01T11:23:58;8.32;;;7.25;;
12493;SDS011;8260;51.422;6.786;2023-03-01T11:26:28;7.13;;;6.38;;
12493;SDS011;8260;51.422;6.786;2023-03-01T11:29:00;8.35;;;7.50;;
12493;SDS011;8260;51.422;6.786;2023-03-01T11:31:31;7.57;;;6.20;;
12493;SDS011;8260;51.422;6.786;2023-03-01T11:34:02;8.52;;;6.50;;
12493;SDS011;8260;51.422;6.786;2023-03-01T11:36:34;8.38;;;6.75;;
12493;SDS011;8260;51.422;6.786;2023-03-01T11:39:10;11.85;;;7.32;;
12493;SDS011;8260;51.422;6.786;2023-03-01T11:41:41;9.15;;;6.07;;
12493;SDS011;8260;51.422;6.786;2023-03-01T11:44:11;8.73;;;6.85;;
12493;SDS011;8260;51.422;6.786;2023-03-01T11:46:48;6.97;;;6.25;;
12493;SDS011;8260;51.422;6.786;2023-03-01T11:49:26;8.48;;;6.95;;
12493;SDS011;8260;51.422;6.786;2023-03-01T11:51:58;7.85;;;6.30;;
12493;SDS011;8260;51.422;6.786;2023-03-01T11:54:33;10.35;;;6.93;;
12493;SDS011;8260;51.422;6.786;2023-03-01T11:57:11;7.60;;;6.88;;
12493;SDS011;8260;51.422;6.786;2023-03-01T11:59:49;7.78;;;6.95;;
12493;SDS011;8260;51.422;6.786;2023-03-01T12:02:27;8.73;;;6.90;;
12493;SDS011;8260;51.422;6.786;2023-03-01T12:07:50;9.05;;;6.72;;
12493;SDS011;8260;51.422;6.786;2023-03-01T12:10:23;8.35;;;6.93;;
12493;SDS011;8260;51.422;6.786;2023-03-01T12:15:42;6.75;;;5.97;;
12493;SDS011;8260;51.422;6.786;2023-03-01T12:21:02;7.68;;;6.32;;
12493;SDS011;8260;51.422;6.786;2023-03-01T12:23:52;9.02;;;6.45;;
12493;SDS011;8260;51.422;6.786;2023-03-01T12:26:26;7.53;;;6.35;;
12493;SDS011;8260;51.422;6.786;2023-03-01T12:28:57;6.95;;;6.20;;
12493;SDS011;8260;51.422;6.786;2023-03-01T12:34:29;8.75;;;6.18;;
12493;SDS011;8260;51.422;6.786;2023-03-01T12:37:03;7.90;;;6.38;;
12493;SDS011;8260;51.422;6.786;2023-03-01T12:39:39;7.40;;;6.07;;
12493;SDS011;8260;51.422;6.786;2023-03-01T12:42:14;7.82;;;5.93;;
12493;SDS011;8260;51.422;6.786;2023-03-01T12:44:53;7.68;;;6.25;;
12493;SDS011;8260;51.422;6.786;2023-03-01T12:47:32;8.95;;;6.35;;
12493;SDS011;8260;51.422;6.786;2023-03-01T12:50:03;11.68;;;7.30;;
12493;SDS011;8260;51.422;6.786;2023-03-01T12:52:35;12.00;;;6.97;;
12493;SDS011;8260;51.422;6.786;2023-03-01T12:55:07;9.15;;;7.18;;
12493;SDS011;8260;51.422;6.786;2023-03-01T12:57:39;8.63;;;7.10;;
12493;SDS011;8260;51.422;6.786;2023-03-01T13:00:15;9.65;;;7.28;;
12493;SDS011;8260;51.422;6.786;2023-03-01T13:02:47;8.85;;;7.20;;
12493;SDS011;8260;51.422;6.786;2023-03-01T13:05:19;6.35;;;5.75;;
12493;SDS011;8260;51.422;6.786;2023-03-01T13:07:53;7.57;;;6.78;;
12493;SDS011;8260;51.422;6.786;2023-03-01T13:10:24;9.75;;;6.90;;
12493;SDS011;8260;51.422;6.786;2023-03-01T13:13:08;7.82;;;6.38;;
12493;SDS011;8260;51.422;6.786;2023-03-01T13:15:39;8.23;;;6.40;;
12493;SDS011;8260;51.422;6.786;2023-03-01T13:18:28;8.77;;;7.05;;
12493;SDS011;8260;51.422;6.786;2023-03-01T13:20:58;8.50;;;6.97;;
12493;SDS011;8260;51.422;6.786;2023-03-01T13:23:28;8.93;;;7.13;;
12493;SDS011;8260;51.422;6.786;2023-03-01T13:26:02;8.23;;;6.40;;
12493;SDS011;8260;51.422;6.786;2023-03-01T13:28:48;7.82;;;6.15;;
12493;SDS011;8260;51.422;6.786;2023-03-01T13:34:04;9.10;;;6.93;;
12493;SDS011;8260;51.422;6.786;2023-03-01T13:36:45;10.35;;;6.70;;
12493;SDS011;8260;51.422;6.786;2023-03-01T13:39:27;9.90;;;6.60;;
12493;SDS011;8260;51.422;6.786;2023-03-01T13:41:58;8.95;;;6.82;;
12493;SDS011;8260;51.422;6.786;2023-03-01T13:44:30;9.30;;;7.05;;
12493;SDS011;8260;51.422;6.786;2023-03-01T13:47:03;8.70;;;6.80;;
12493;SDS011;8260;51.422;6.786;2023-03-01T13:49:41;9.18;;;6.40;;
12493;SDS011;8260;51.422;6.786;2023-03-01T13:52:26;8.70;;;6.72;;
12493;SDS011;8260;51.422;6.786;2023-03-01T13:54:58;9.60;;;6.28;;
12493;SDS011;8260;51.422;6.786;2023-03-01T13:57:29;8.00;;;6.28;;
12493;SDS011;8260;51.422;6.786;2023-03-01T13:59:59;10.25;;;6.70;;
12493;SDS011;8260;51.422;6.786;2023-03-01T14:02:29;10.05;;;6.65;;
12493;SDS011;8260;51.422;6.786;2023-03-01T14:04:58;9.07;;;7.13;;
12493;SDS011;8260;51.422;6.786;2023-03-01T14:07:27;9.32;;;7.20;;
12493;SDS011;8260;51.422;6.786;2023-03-01T14:09:57;8.00;;;6.85;;
12493;SDS011;8260;51.422;6.786;2023-03-01T14:12:29;8.48;;;7.13;;
12493;SDS011;8260;51.422;6.786;2023-03-01T14:15:04;8.05;;;6.47;;
12493;SDS011;8260;51.422;6.786;2023-03-01T14:17:43;9.40;;;7.38;;
12493;SDS011;8260;51.422;6.786;2023-03-01T14:20:15;8.73;;;7.20;;
12493;SDS011;8260;51.422;6.786;2023-03-01T14:22:44;10.55;;;7.38;;
12493;SDS011;8260;51.422;6.786;2023-03-01T14:25:19;9.57;;;7.28;;
12493;SDS011;8260;51.422;6.786;2023-03-01T14:27:54;7.70;;;6.90;;
12493;SDS011;8260;51.422;6.786;2023-03-01T14:30:25;8.68;;;6.78;;
12493;SDS011;8260;51.422;6.786;2023-03-01T14:32:54;8.38;;;7.32;;
12493;SDS011;8260;51.422;6.786;2023-03-01T14:35:24;10.88;;;7.50;;
12493;SDS011;8260;51.422;6.786;2023-03-01T14:37:53;8.35;;;7.38;;
12493;SDS011;8260;51.422;6.786;2023-03-01T14:40:23;7.97;;;7.18;;
12493;SDS011;8260;51.422;6.786;2023-03-01T14:42:51;10.85;;;7.20;;
12493;SDS011;8260;51.422;6.786;2023-03-01T14:45:20;9.35;;;7.65;;
12493;SDS011;8260;51.422;6.786;2023-03-01T14:47:50;8.43;;;7.28;;
12493;SDS011;8260;51.422;6.786;2023-03-01T14:50:21;8.32;;;7.25;;
12493;SDS011;8260;51.422;6.786;2023-03-01T14:52:50;9.98;;;7.70;;
12493;SDS011;8260;51.422;6.786;2023-03-01T14:55:25;13.35;;;8.30;;
12493;SDS011;8260;51.422;6.786;2023-03-01T14:57:53;10.57;;;7.63;;
12493;SDS011;8260;51.422;6.786;2023-03-01T15:00:23;10.23;;;7.82;;
12493;SDS011;8260;51.422;6.786;2023-03-01T15:02:54;8.93;;;7.22;;
12493;SDS011;8260;51.422;6.786;2023-03-01T15:05:25;9.85;;;7.57;;
12493;SDS011;8260;51.422;6.786;2023-03-01T15:07:56;10.60;;;8.10;;
12493;SDS011;8260;51.422;6.786;2023-03-01T15:10:26;12.10;;;9.10;;
12493;SDS011;8260;51.422;6.786;2023-03-01T15:12:55;11.00;;;8.75;;
12493;SDS011;8260;51.422;6.786;2023-03-01T15:15:34;10.50;;;9.00;;
12493;SDS011;8260;51.422;6.786;2023-03-01T15:18:05;9.35;;;8.38;;
12493;SDS011;8260;51.422;6.786;2023-03-01T15:20:35;9.80;;;8.13;;
12493;SDS011;8260;51.422;6.786;2023-03-01T15:23:03;8.82;;;7.70;;